Culleredo, Spain
Current Conditions -  °F | °C
As of 5:30 PM on Tuesday 27 Jan 2015 (Local Time) from LECO Reporting Station
Broken Clouds Broken Clouds  
Wind Chill: 54°   Ceiling: 3300
Heat Index: 54°   Visibility: 6mi
Dew Point: 50°   Wind: 7mph
Humidity: 88%   Direction: 350°N
Pressure: 30.48"   Gusts: NA
Location:  43.29°N, 8.39°W
Report Text: LECO 271630Z 35006KT 310V050 9999 BKN033 12/10 Q1032 NOSIG
Loading
Personal Weather Stations






























Interactive Weather Map New forecast layout! Learn more

10-Day Weather Forecast

Advertisements
Track Severe Weather on mobile